createdAt,value
2019-02-28T00:02:11.696Z,94.50
2019-02-28T00:04:41.284Z,94.40
2019-02-28T00:07:10.972Z,94.40
2019-02-28T00:09:40.122Z,94.60
2019-02-28T00:12:10.212Z,94.60
2019-02-28T00:14:41.782Z,94.60
2019-02-28T00:17:10.955Z,94.80
2019-02-28T00:19:40.100Z,94.50
2019-02-28T00:22:11.371Z,94.50
2019-02-28T00:25:01.212Z,94.80
2019-02-28T00:27:30.961Z,94.60
2019-02-28T00:30:00.345Z,94.80
2019-02-28T00:32:31.660Z,94.90
2019-02-28T00:35:25.907Z,95.10
2019-02-28T00:37:56.642Z,95.10
2019-02-28T00:40:26.414Z,95.20
2019-02-28T00:42:55.401Z,95.30
2019-02-28T00:45:24.397Z,95.20
2019-02-28T00:47:53.393Z,95.40
2019-02-28T00:50:22.373Z,95.50
2019-02-28T00:52:51.713Z,95.50
2019-02-28T00:55:20.625Z,95.60
2019-02-28T00:57:49.865Z,95.90
2019-02-28T01:00:19.033Z,95.70
2019-02-28T01:02:51.876Z,95.70
2019-02-28T01:05:18.677Z,95.60
2019-02-28T01:07:48.929Z,95.80
2019-02-28T01:10:18.125Z,95.80
2019-02-28T01:12:53.267Z,95.80
2019-02-28T01:15:18.198Z,95.80
2019-02-28T01:17:47.421Z,95.80
2019-02-28T01:20:16.766Z,95.80
2019-02-28T01:22:45.805Z,95.70
2019-02-28T01:25:15.254Z,95.60
2019-02-28T01:27:44.240Z,95.50
2019-02-28T01:30:13.579Z,95.40
2019-02-28T01:32:42.822Z,95.30
2019-02-28T01:35:12.307Z,95.00
2019-02-28T01:37:41.237Z,95.10
2019-02-28T01:40:10.365Z,95.00
2019-02-28T01:42:39.741Z,95.20
2019-02-28T01:45:09.960Z,95.20
2019-02-28T01:47:39.437Z,95.50
2019-02-28T01:50:08.857Z,95.50
2019-02-28T01:52:37.855Z,95.30
2019-02-28T01:55:07.438Z,95.30
2019-02-28T01:57:42.516Z,95.30
2019-02-28T02:00:10.094Z,95.30
2019-02-28T02:02:39.121Z,95.50
2019-02-28T02:05:08.457Z,95.50
2019-02-28T02:07:37.474Z,95.40
2019-02-28T02:10:17.671Z,95.40
2019-02-28T02:12:45.746Z,95.50
2019-02-28T02:15:16.781Z,95.80
2019-02-28T02:17:45.386Z,95.90
2019-02-28T02:20:14.502Z,95.90
2019-02-28T02:22:44.326Z,95.90
2019-02-28T02:25:14.478Z,96.20
2019-02-28T02:27:43.712Z,95.90
2019-02-28T02:30:16.195Z,96.10
2019-02-28T02:32:45.313Z,96.20
2019-02-28T02:35:14.376Z,96.30
2019-02-28T02:37:43.307Z,96.30
2019-02-28T02:40:12.844Z,96.40
2019-02-28T02:42:47.241Z,96.30
2019-02-28T02:45:13.298Z,96.20
2019-02-28T02:47:42.378Z,96.20
2019-02-28T02:50:13.115Z,96.40
2019-02-28T02:52:42.123Z,96.30
2019-02-28T02:55:11.642Z,96.20
2019-02-28T02:57:40.682Z,96.30
2019-02-28T03:00:15.443Z,96.30
2019-02-28T03:02:44.501Z,96.40
2019-02-28T03:05:14.006Z,96.60
2019-02-28T03:07:43.374Z,96.40
2019-02-28T03:10:17.295Z,96.40
2019-02-28T03:12:44.307Z,96.30
2019-02-28T03:15:14.293Z,96.50
2019-02-28T03:17:46.468Z,96.40
2019-02-28T03:20:14.227Z,96.50
2019-02-28T03:22:43.168Z,96.40
2019-02-28T03:25:13.486Z,96.40
2019-02-28T03:27:42.493Z,96.50
2019-02-28T03:30:26.324Z,96.50
2019-02-28T03:32:44.820Z,96.40
2019-02-28T03:35:13.657Z,96.40
2019-02-28T03:37:42.662Z,96.40
2019-02-28T03:40:11.785Z,96.20
2019-02-28T03:42:40.951Z,96.30
2019-02-28T03:45:09.998Z,96.20
2019-02-28T03:47:38.923Z,96.40
2019-02-28T03:50:08.461Z,96.40
2019-02-28T03:52:41.771Z,96.40
2019-02-28T03:55:08.578Z,96.40
2019-02-28T03:57:37.488Z,96.50
2019-02-28T04:00:12.931Z,96.40
2019-02-28T04:02:41.997Z,96.40
2019-02-28T04:05:11.103Z,96.70
2019-02-28T04:07:40.597Z,96.60
2019-02-28T04:10:10.059Z,96.70
2019-02-28T04:12:44.841Z,96.70
2019-02-28T04:15:11.433Z,96.70
2019-02-28T04:17:40.407Z,96.90
2019-02-28T04:20:09.420Z,96.50
2019-02-28T04:22:38.853Z,96.50
2019-02-28T04:25:08.099Z,96.60
2019-02-28T04:27:40.377Z,96.20
2019-02-28T04:30:08.703Z,96.10
2019-02-28T04:32:37.993Z,96.10
2019-02-28T04:35:07.513Z,96.10
2019-02-28T04:37:36.438Z,96.00
2019-02-28T04:40:06.559Z,95.80
2019-02-28T04:42:36.677Z,95.60
2019-02-28T04:45:07.601Z,95.60
2019-02-28T04:47:37.209Z,95.50
2019-02-28T04:50:07.532Z,95.50
2019-02-28T04:52:36.825Z,95.70
2019-02-28T04:55:06.029Z,95.80
2019-02-28T04:57:34.869Z,96.00
2019-02-28T05:00:05.813Z,96.00
2019-02-28T05:02:34.930Z,96.00
2019-02-28T05:05:04.129Z,96.00
2019-02-28T05:07:33.045Z,95.90
2019-02-28T05:10:02.333Z,96.00
2019-02-28T05:12:31.421Z,96.00
2019-02-28T05:15:02.531Z,95.60
2019-02-28T05:17:31.333Z,95.50
2019-02-28T05:20:00.313Z,95.70
2019-02-28T05:22:29.331Z,95.70
2019-02-28T05:24:58.208Z,95.50
2019-02-28T05:27:27.157Z,95.20
2019-02-28T05:29:56.243Z,95.30
2019-02-28T05:32:25.268Z,95.10
2019-02-28T05:34:54.226Z,95.00
2019-02-28T05:37:23.255Z,94.70
2019-02-28T05:39:52.299Z,94.70
2019-02-28T05:42:23.420Z,94.80
2019-02-28T05:44:51.901Z,94.60
2019-02-28T05:47:20.841Z,94.80
2019-02-28T05:49:49.931Z,94.80
2019-02-28T05:52:18.922Z,94.60
2019-02-28T05:54:50.305Z,94.80
2019-02-28T05:57:18.518Z,95.20
2019-02-28T05:59:47.618Z,95.10
2019-02-28T06:02:18.893Z,95.40
2019-02-28T06:04:47.441Z,95.20
2019-02-28T06:07:16.446Z,95.00
2019-02-28T06:09:45.526Z,95.00
2019-02-28T06:12:16.161Z,95.10
2019-02-28T06:14:45.194Z,94.90
2019-02-28T06:17:14.303Z,94.80
2019-02-28T06:19:44.318Z,94.80
2019-02-28T06:22:13.353Z,94.80
2019-02-28T06:24:44.862Z,94.30
2019-02-28T06:27:12.842Z,94.60
2019-02-28T06:29:41.761Z,94.80
2019-02-28T06:32:10.703Z,94.40
2019-02-28T06:34:42.280Z,93.80
2019-02-28T06:37:10.250Z,92.90
2019-02-28T06:39:39.267Z,92.10
2019-02-28T06:42:08.234Z,91.50
2019-02-28T06:44:37.258Z,91.10
2019-02-28T06:47:06.298Z,90.70
2019-02-28T06:49:40.956Z,90.40
2019-02-28T06:52:06.093Z,90.00
2019-02-28T06:54:35.104Z,89.20
2019-02-28T06:57:04.126Z,89.10
2019-02-28T06:59:32.994Z,88.60
2019-02-28T07:02:02.009Z,88.00
2019-02-28T07:04:30.857Z,87.70
2019-02-28T07:06:59.743Z,86.90
2019-02-28T07:09:30.425Z,86.90
2019-02-28T07:11:59.237Z,86.00
2019-02-28T07:14:28.166Z,85.60
2019-02-28T07:16:57.358Z,85.50
2019-02-28T07:19:27.075Z,85.00
2019-02-28T07:21:56.289Z,84.90
2019-02-28T07:24:25.461Z,90.90
2019-02-28T07:26:54.578Z,84.60
2019-02-28T07:29:23.773Z,84.10
2019-02-28T07:31:52.881Z,82.60
2019-02-28T07:34:23.781Z,82.30
2019-02-28T07:36:52.684Z,82.10
2019-02-28T07:39:21.719Z,81.30
2019-02-28T07:41:50.759Z,80.90
2019-02-28T07:44:22.240Z,80.20
2019-02-28T07:46:50.541Z,80.00
2019-02-28T07:49:19.570Z,79.70
2019-02-28T07:51:48.534Z,79.90
2019-02-28T07:54:17.574Z,79.50
2019-02-28T07:56:46.590Z,79.10
2019-02-28T07:59:15.627Z,78.40
2019-02-28T08:01:44.662Z,77.80
2019-02-28T08:04:18.104Z,78.30
2019-02-28T08:06:44.470Z,77.20
2019-02-28T08:09:32.581Z,76.40
2019-02-28T08:12:01.589Z,75.90
2019-02-28T08:14:30.576Z,74.80
2019-02-28T08:16:59.513Z,74.90
2019-02-28T08:19:28.441Z,74.60
2019-02-28T08:21:57.385Z,74.20
2019-02-28T08:24:26.669Z,73.60
2019-02-28T08:26:55.829Z,72.70
2019-02-28T08:29:24.826Z,71.90
2019-02-28T08:31:53.761Z,71.00
2019-02-28T08:34:23.875Z,70.60
2019-02-28T08:36:54.007Z,69.90
2019-02-28T08:39:22.997Z,69.00
2019-02-28T08:41:51.926Z,68.50
2019-02-28T08:44:23.903Z,67.10
2019-02-28T08:46:52.082Z,66.60
2019-02-28T08:49:21.110Z,66.40
2019-02-28T08:51:50.047Z,66.10
2019-02-28T08:54:18.974Z,65.10
2019-02-28T08:56:49.772Z,64.80
2019-02-28T08:59:22.341Z,64.10
2019-02-28T09:01:49.658Z,63.40
2019-02-28T09:04:18.865Z,63.20
2019-02-28T09:06:47.807Z,63.50
2019-02-28T09:09:16.998Z,63.00
2019-02-28T09:11:46.549Z,61.80
2019-02-28T09:14:17.826Z,61.80
2019-02-28T09:16:46.134Z,61.50
2019-02-28T09:19:14.987Z,61.40
2019-02-28T09:21:43.909Z,60.70
2019-02-28T09:24:13.653Z,60.00
2019-02-28T09:26:42.753Z,59.00
2019-02-28T09:29:11.667Z,58.70
2019-02-28T09:31:40.930Z,59.00
2019-02-28T09:34:09.796Z,57.90
2019-02-28T09:36:39.077Z,57.20
2019-02-28T09:39:08.529Z,56.40
2019-02-28T09:41:40.156Z,55.90
2019-02-28T09:44:08.265Z,55.60
2019-02-28T09:46:37.261Z,54.40
2019-02-28T09:49:12.049Z,53.60
2019-02-28T09:51:37.433Z,52.60
2019-02-28T09:54:06.681Z,52.30
2019-02-28T09:56:35.676Z,51.80
2019-02-28T09:59:05.110Z,51.70
2019-02-28T10:01:34.043Z,49.50
2019-02-28T10:04:02.949Z,50.20
2019-02-28T10:06:33.270Z,47.70
2019-02-28T10:09:02.404Z,46.50
2019-02-28T10:11:32.447Z,46.10
2019-02-28T10:14:01.629Z,47.10
2019-02-28T10:16:30.630Z,46.20
2019-02-28T10:18:59.553Z,46.00
2019-02-28T10:21:28.857Z,45.00
2019-02-28T10:23:58.130Z,45.00
2019-02-28T10:26:27.214Z,44.90
2019-02-28T10:28:56.141Z,43.60
2019-02-28T10:31:36.109Z,44.00
2019-02-28T10:33:56.961Z,44.40
2019-02-28T10:36:26.193Z,43.30
2019-02-28T10:38:55.125Z,43.60
2019-02-28T10:41:27.428Z,43.40
2019-02-28T10:43:55.917Z,42.60
2019-02-28T10:46:25.234Z,42.00
2019-02-28T10:48:54.437Z,42.10
2019-02-28T10:51:23.710Z,42.60
2019-02-28T10:53:52.719Z,42.10
2019-02-28T10:56:21.632Z,42.50
2019-02-28T10:58:51.054Z,42.20
2019-02-28T11:01:20.782Z,42.10
2019-02-28T11:03:49.804Z,41.10
2019-02-28T11:06:18.737Z,40.20
2019-02-28T11:08:48.256Z,40.90
2019-02-28T11:11:17.786Z,40.40
2019-02-28T11:13:46.797Z,40.70
2019-02-28T11:16:16.177Z,40.60
2019-02-28T11:18:45.401Z,41.10
2019-02-28T11:21:14.987Z,42.10
2019-02-28T11:23:46.480Z,41.40
2019-02-28T11:26:14.926Z,42.20
2019-02-28T11:28:43.933Z,41.30
2019-02-28T11:31:13.368Z,40.50
2019-02-28T11:33:43.048Z,39.50
2019-02-28T11:36:12.037Z,40.00
2019-02-28T11:38:41.129Z,40.50
2019-02-28T11:41:10.232Z,41.10
2019-02-28T11:43:39.225Z,40.60
2019-02-28T11:46:09.564Z,40.80
2019-02-28T11:48:38.561Z,41.20
2019-02-28T11:51:07.793Z,40.60
2019-02-28T11:53:40.293Z,40.70
2019-02-28T11:56:07.624Z,39.80
2019-02-28T11:58:36.638Z,40.80
2019-02-28T12:01:10.217Z,39.70
2019-02-28T12:03:36.691Z,39.70
2019-02-28T12:06:06.879Z,40.20
2019-02-28T12:08:36.052Z,40.20
2019-02-28T12:11:05.162Z,39.80
2019-02-28T12:13:34.650Z,39.30
2019-02-28T12:16:03.964Z,39.00
2019-02-28T12:18:33.191Z,38.10
2019-02-28T12:21:04.857Z,37.60
2019-02-28T12:23:32.985Z,37.70
2019-02-28T12:26:02.203Z,37.60
2019-02-28T12:28:31.257Z,38.00
2019-02-28T12:31:00.502Z,38.00
2019-02-28T12:33:30.138Z,37.50
2019-02-28T12:35:59.424Z,37.10
2019-02-28T12:38:29.159Z,37.70
2019-02-28T12:40:58.426Z,37.10
2019-02-28T12:43:27.365Z,37.50
2019-02-28T12:45:56.839Z,37.00
2019-02-28T12:48:27.410Z,37.40
2019-02-28T12:50:56.491Z,37.30
2019-02-28T12:53:25.556Z,37.10
2019-02-28T12:55:54.626Z,37.10
2019-02-28T12:58:23.625Z,37.50
2019-02-28T13:00:56.441Z,37.00
2019-02-28T13:03:23.619Z,37.20
2019-02-28T13:05:52.625Z,37.10
2019-02-28T13:08:21.645Z,37.00
2019-02-28T13:10:50.652Z,37.40
2019-02-28T13:13:21.017Z,36.70
2019-02-28T13:15:51.062Z,36.80
2019-02-28T13:18:20.150Z,36.50
2019-02-28T13:20:49.178Z,36.20
2019-02-28T13:23:18.126Z,36.30
2019-02-28T13:25:47.270Z,36.00
2019-02-28T13:28:17.763Z,36.90
2019-02-28T13:30:50.179Z,36.10
2019-02-28T13:33:18.320Z,36.20
2019-02-28T13:35:47.725Z,35.00
2019-02-28T13:38:19.115Z,35.80
2019-02-28T13:40:47.721Z,35.00
2019-02-28T13:43:21.012Z,35.50
2019-02-28T13:45:50.986Z,35.90
2019-02-28T13:48:25.687Z,35.80
2019-02-28T13:50:49.507Z,35.50
2019-02-28T13:53:18.980Z,35.50
2019-02-28T13:55:48.078Z,34.90
2019-02-28T13:58:17.755Z,34.90
2019-02-28T14:00:47.743Z,34.80
2019-02-28T14:03:17.194Z,35.50
2019-02-28T14:05:46.592Z,34.30
2019-02-28T14:08:15.797Z,34.20
2019-02-28T14:10:45.061Z,34.30
2019-02-28T14:13:14.401Z,34.10
2019-02-28T14:15:44.148Z,34.80
2019-02-28T14:18:14.205Z,34.80
2019-02-28T14:20:43.519Z,34.50
2019-02-28T14:23:12.533Z,34.70
2019-02-28T14:25:41.537Z,34.70
2019-02-28T14:28:10.842Z,34.00
2019-02-28T14:30:42.605Z,34.20
2019-02-28T14:33:12.138Z,34.60
2019-02-28T14:35:41.130Z,35.00
2019-02-28T14:38:10.147Z,35.10
2019-02-28T14:40:39.416Z,35.40
2019-02-28T14:43:08.513Z,36.00
2019-02-28T14:45:38.990Z,35.70
2019-02-28T14:48:09.066Z,35.60
2019-02-28T14:50:38.338Z,35.80
2019-02-28T14:53:13.142Z,36.10
2019-02-28T14:55:38.377Z,36.10
2019-02-28T14:58:07.393Z,36.30
2019-02-28T15:00:38.911Z,36.50
2019-02-28T15:03:07.981Z,36.60
2019-02-28T15:05:37.665Z,36.90
2019-02-28T15:08:07.138Z,38.40
2019-02-28T15:10:36.321Z,38.30
2019-02-28T15:13:05.566Z,38.80
2019-02-28T15:15:36.456Z,38.60
2019-02-28T15:18:05.941Z,38.30
2019-02-28T15:20:34.950Z,38.80
2019-02-28T15:23:03.997Z,38.20
2019-02-28T15:25:33.034Z,37.90
2019-02-28T15:28:02.071Z,38.00
2019-02-28T15:30:33.759Z,38.10
2019-02-28T15:33:02.723Z,38.10
2019-02-28T15:35:32.057Z,38.00
2019-02-28T15:38:20.126Z,38.10
2019-02-28T15:40:49.325Z,38.30
2019-02-28T15:43:18.537Z,38.40
2019-02-28T15:45:47.713Z,38.20
2019-02-28T15:48:16.895Z,38.40
2019-02-28T15:50:51.261Z,39.50
2019-02-28T15:53:16.481Z,39.30
2019-02-28T15:55:45.847Z,39.10
2019-02-28T15:58:16.617Z,39.20
2019-02-28T16:00:45.835Z,39.40
2019-02-28T16:03:16.638Z,39.60
2019-02-28T16:05:45.586Z,39.50
2019-02-28T16:08:14.581Z,39.80
2019-02-28T16:10:52.858Z,40.20
2019-02-28T16:13:15.117Z,40.40
2019-02-28T16:15:46.278Z,40.40
2019-02-28T16:18:14.949Z,40.40
2019-02-28T16:20:44.073Z,41.20
2019-02-28T16:23:13.378Z,41.00
2019-02-28T16:25:42.607Z,41.20
2019-02-28T16:28:11.642Z,41.30
2019-02-28T16:30:43.617Z,41.50
2019-02-28T16:33:12.605Z,41.40
2019-02-28T16:35:41.609Z,41.20
2019-02-28T16:38:11.233Z,41.20
2019-02-28T16:40:42.063Z,41.60
2019-02-28T16:43:11.157Z,41.40
2019-02-28T16:45:48.651Z,41.60
2019-02-28T16:48:17.905Z,41.60
2019-02-28T16:50:46.807Z,41.80
2019-02-28T16:53:16.504Z,42.10
2019-02-28T16:55:45.618Z,42.60
2019-02-28T16:58:14.630Z,42.70
2019-02-28T17:00:46.281Z,42.90
2019-02-28T17:03:15.930Z,43.00
2019-02-28T17:05:45.122Z,43.40
2019-02-28T17:08:15.556Z,43.90
2019-02-28T17:10:45.210Z,43.90
2019-02-28T17:13:38.684Z,44.10
2019-02-28T17:16:45.664Z,44.30
2019-02-28T17:19:14.901Z,44.90
2019-02-28T17:21:43.851Z,45.40
2019-02-28T17:24:13.271Z,45.60
2019-02-28T17:27:10.583Z,45.70
2019-02-28T17:29:47.181Z,45.90
2019-02-28T17:32:16.266Z,46.10
2019-02-28T17:34:45.241Z,46.30
2019-02-28T17:37:14.370Z,46.60
2019-02-28T17:39:43.294Z,46.80
2019-02-28T17:42:15.157Z,46.90
2019-02-28T17:45:15.566Z,47.10
2019-02-28T17:48:33.266Z,47.40
2019-02-28T17:51:18.411Z,48.00
2019-02-28T17:54:29.857Z,48.50
2019-02-28T17:57:17.694Z,48.60
2019-02-28T18:00:16.197Z,49.20
2019-02-28T18:03:41.178Z,49.30
2019-02-28T18:06:47.231Z,49.40
2019-02-28T18:10:01.587Z,50.00
2019-02-28T18:12:59.505Z,50.30
2019-02-28T18:15:50.797Z,50.70
2019-02-28T18:18:53.669Z,50.30
2019-02-28T18:21:42.461Z,50.50
2019-02-28T18:24:40.889Z,50.80
2019-02-28T18:27:33.077Z,51.00
2019-02-28T18:31:01.356Z,51.30
2019-02-28T18:33:30.213Z,51.50
2019-02-28T18:35:59.284Z,51.70
2019-02-28T18:38:28.266Z,52.00
2019-02-28T18:40:59.679Z,51.90
2019-02-28T18:43:28.015Z,52.00
2019-02-28T18:45:57.725Z,52.40
2019-02-28T18:48:26.805Z,52.40
2019-02-28T18:50:55.913Z,52.50
2019-02-28T18:53:24.796Z,52.70
2019-02-28T18:55:53.807Z,53.00
2019-02-28T18:58:22.998Z,53.00
2019-02-28T19:00:52.005Z,53.00
2019-02-28T19:03:21.085Z,52.90
2019-02-28T19:05:50.869Z,53.40
2019-02-28T19:08:20.172Z,53.50
2019-02-28T19:10:49.174Z,53.70
2019-02-28T19:13:18.766Z,53.80
2019-02-28T19:15:47.779Z,53.90
2019-02-28T19:18:17.201Z,53.80
2019-02-28T19:20:46.200Z,54.10
2019-02-28T19:23:15.441Z,54.20
2019-02-28T19:25:44.561Z,54.30
2019-02-28T19:28:13.507Z,54.50
2019-02-28T19:30:42.500Z,54.80
2019-02-28T19:33:11.369Z,54.90
2019-02-28T19:35:40.377Z,55.00
2019-02-28T19:38:09.321Z,54.90
2019-02-28T19:40:38.337Z,55.00
2019-02-28T19:43:07.349Z,55.20
2019-02-28T19:45:37.029Z,55.30
2019-02-28T19:48:06.069Z,55.50
2019-02-28T19:50:35.373Z,55.70
2019-02-28T19:53:04.404Z,55.80
2019-02-28T19:55:33.413Z,55.80
2019-02-28T19:58:02.357Z,55.70
2019-02-28T20:00:31.910Z,55.90
2019-02-28T20:03:01.099Z,56.00
2019-02-28T20:05:30.450Z,56.20
2019-02-28T20:07:59.474Z,56.30
2019-02-28T20:10:28.489Z,56.20
2019-02-28T20:12:57.813Z,56.40
2019-02-28T20:15:29.959Z,56.40
2019-02-28T20:17:59.184Z,56.50
2019-02-28T20:20:29.134Z,56.60
2019-02-28T20:22:58.821Z,56.60
2019-02-28T20:25:27.687Z,56.90
2019-02-28T20:27:56.862Z,56.90
2019-02-28T20:30:26.638Z,57.10
2019-02-28T20:32:55.665Z,57.50
2019-02-28T20:35:26.803Z,57.50
2019-02-28T20:37:55.505Z,57.70
2019-02-28T20:40:24.763Z,57.90
2019-02-28T20:42:53.985Z,58.00
2019-02-28T20:45:22.997Z,58.70
2019-02-28T20:47:51.953Z,58.90
2019-02-28T20:50:24.938Z,59.10
2019-02-28T20:52:54.266Z,59.40
2019-02-28T20:55:23.276Z,59.60
2019-02-28T20:57:52.218Z,59.90
2019-02-28T21:00:24.365Z,60.10
2019-02-28T21:02:53.369Z,60.50
2019-02-28T21:05:22.401Z,60.80
2019-02-28T21:07:51.417Z,61.10
2019-02-28T21:10:20.822Z,61.40
2019-02-28T21:12:50.082Z,61.50
2019-02-28T21:15:19.098Z,61.70
2019-02-28T21:17:48.098Z,62.00
2019-02-28T21:20:17.113Z,62.00
2019-02-28T21:22:46.121Z,62.30
2019-02-28T21:25:15.101Z,62.70
2019-02-28T21:27:44.033Z,62.90
2019-02-28T21:30:15.446Z,63.10
2019-02-28T21:32:44.554Z,63.40
2019-02-28T21:35:14.557Z,63.50
2019-02-28T21:37:44.082Z,64.10
2019-02-28T21:40:14.792Z,64.30
2019-02-28T21:42:43.788Z,64.60
2019-02-28T21:45:16.377Z,64.60
2019-02-28T21:47:45.412Z,65.00
2019-02-28T21:50:15.454Z,65.70
2019-02-28T21:52:44.560Z,66.10
2019-02-28T21:55:14.013Z,66.40
2019-02-28T21:57:43.000Z,66.80
2019-02-28T22:00:14.673Z,67.20
2019-02-28T22:02:43.602Z,67.60
2019-02-28T22:05:13.429Z,68.10
2019-02-28T22:07:44.439Z,68.80
2019-02-28T22:10:13.451Z,68.70
2019-02-28T22:12:43.948Z,69.90
2019-02-28T22:15:14.826Z,70.20
2019-02-28T22:17:43.888Z,70.90
2019-02-28T22:20:13.430Z,71.70
2019-02-28T22:22:42.763Z,71.90
2019-02-28T22:25:12.846Z,72.90
2019-02-28T22:27:41.863Z,72.50
2019-02-28T22:30:42.512Z,73.30
2019-02-28T22:33:17.663Z,73.30
2019-02-28T22:35:49.589Z,74.20
2019-02-28T22:38:27.613Z,75.10
2019-02-28T22:40:57.374Z,75.50
2019-02-28T22:43:26.436Z,75.80
2019-02-28T22:45:58.408Z,76.90
2019-02-28T22:48:27.673Z,76.70
2019-02-28T22:50:56.869Z,77.20
2019-02-28T22:53:25.846Z,77.10
2019-02-28T22:55:54.693Z,77.80
2019-02-28T22:58:23.930Z,77.80
2019-02-28T23:01:04.676Z,77.60
2019-02-28T23:03:34.204Z,77.70
2019-02-28T23:06:03.268Z,78.00
2019-02-28T23:08:32.332Z,78.60
2019-02-28T23:11:03.606Z,79.50
2019-02-28T23:13:32.591Z,78.90
2019-02-28T23:16:01.593Z,79.30
2019-02-28T23:18:30.529Z,79.60
2019-02-28T23:20:59.534Z,79.80
2019-02-28T23:23:28.786Z,80.10
2019-02-28T23:26:14.841Z,80.60
2019-02-28T23:28:57.081Z,81.20
2019-02-28T23:31:48.338Z,81.50
2019-02-28T23:34:22.486Z,81.80
2019-02-28T23:36:51.730Z,82.60
2019-02-28T23:39:21.217Z,82.90
2019-02-28T23:41:50.830Z,83.20
2019-02-28T23:44:19.767Z,83.30
2019-02-28T23:46:48.622Z,82.80
2019-02-28T23:49:17.553Z,82.50
2019-02-28T23:51:46.706Z,82.50
2019-02-28T23:54:15.565Z,82.90
2019-02-28T23:56:44.676Z,82.70
2019-02-28T23:59:13.537Z,82.90
